O Fallon, Illinois
Current Conditions -  °F | °C
As of 1:58 AM on Thursday 29 Jan 2015 (Local Time) from KBLV Reporting Station
Few Clouds Few Clouds  
Wind Chill: 47°   Ceiling: Unl
Heat Index: 49°   Visibility: 10mi
Dew Point: 39°   Wind: 6mph
Humidity: 70%   Direction: NA
Pressure: 29.8"   Gusts: NA
Location:  38.6074°N, 89.8929°W
Report Text: KBLV 290758Z AUTO VRB05KT 10SM FEW240 09/04 A2980 RMK AO2 SLP095 T00940041 $
Loading
Personal Weather Stations






























Interactive Weather Map New forecast layout! Learn more

10-Day Weather Forecast

Advertisements
Track Severe Weather on mobile